Time;durP1;ratioP1;P1;durP2;ratioP2;P2;SDS_P1;SDS_P2;PMS_P1;PMS_P2;Temp;Humidity;BMP_temperature;BMP_pressure;BME280_temperature;BME280_humidity;BME280_pressure;Samples;Min_cycle;Max_cycle;Signal;HPM_P1;HPM_P2
2022/01/13 00:00:44;;;;;;;30.83;17.17;;;;;;;-1.04;59.50;96339.44;4943607;23;20044;-75
2022/01/13 00:03:10;;;;;;;35.70;17.88;;;;;;;-1.05;59.69;96337.81;4915086;29;20039;-75
2022/01/13 00:05:35;;;;;;;43.85;18.52;;;;;;;-1.01;59.32;96336.63;4912859;29;20036;-76
2022/01/13 00:08:08;;;;;;;35.47;18.10;;;;;;;-1.09;59.49;96341.56;4928962;29;20051;-76
2022/01/13 00:10:38;;;;;;;39.85;18.95;;;;;;;-1.15;59.53;96347.94;4913049;29;20043;-75
2022/01/13 00:13:07;;;;;;;32.40;17.40;;;;;;;-1.21;59.77;96354.34;4900354;29;20040;-76
2022/01/13 00:15:49;;;;;;;33.53;19.55;;;;;;;-1.27;59.91;96357.41;4932656;29;20526;-75
2022/01/13 00:18:17;;;;;;;28.52;17.98;;;;;;;-1.36;60.42;96353.00;4932811;29;20031;-75
2022/01/13 00:23:46;;;;;;;34.08;19.63;;;;;;;-1.48;60.23;96361.59;4925643;29;20595;-75
2022/01/13 00:26:23;;;;;;;39.90;21.80;;;;;;;-1.56;60.40;96363.94;4932876;29;20095;-75
2022/01/13 00:28:51;;;;;;;43.03;22.08;;;;;;;-1.55;59.71;96366.38;4931143;29;20046;-76
2022/01/13 00:31:19;;;;;;;45.85;22.25;;;;;;;-1.62;59.83;96369.53;4929922;29;20119;-76
2022/01/13 00:33:54;;;;;;;39.38;21.27;;;;;;;-1.67;60.22;96379.25;4922845;23;20040;-76
2022/01/13 00:36:19;;;;;;;43.10;21.88;;;;;;;-1.71;59.97;96376.16;4895933;29;20079;-76
2022/01/13 00:38:47;;;;;;;44.20;22.50;;;;;;;-1.78;60.70;96384.41;4918679;29;20436;-75
2022/01/13 00:41:12;;;;;;;40.72;22.00;;;;;;;-1.86;60.51;96377.31;4923061;29;20041;-76
2022/01/13 00:43:40;;;;;;;42.03;22.42;;;;;;;-1.86;60.44;96378.13;4922504;29;20068;-76
2022/01/13 00:46:28;;;;;;;41.15;21.02;;;;;;;-1.76;60.86;96392.75;4922046;29;20035;-76
2022/01/13 00:49:06;;;;;;;32.30;18.67;;;;;;;-1.82;60.65;96383.78;4922697;29;20516;-75
2022/01/13 00:51:42;;;;;;;43.50;21.95;;;;;;;-1.84;60.68;96386.47;4917133;29;20548;-75
2022/01/13 00:54:08;;;;;;;40.70;23.30;;;;;;;-1.84;60.80;96396.66;4921352;29;20405;-75
2022/01/13 00:56:37;;;;;;;41.92;21.58;;;;;;;-1.79;60.61;96393.78;4922691;29;20036;-75
2022/01/13 00:59:16;;;;;;;49.92;23.27;;;;;;;-1.85;60.92;96384.84;4905382;29;20123;-75
2022/01/13 01:01:46;;;;;;;48.30;22.95;;;;;;;-1.83;60.56;96408.47;4919282;29;20039;-75
2022/01/13 01:04:12;;;;;;;39.80;21.35;;;;;;;-1.78;60.45;96405.59;4922808;29;20473;-75
2022/01/13 01:06:37;;;;;;;40.70;22.02;;;;;;;-1.81;59.81;96405.81;4905305;29;20217;-75
2022/01/13 01:09:03;;;;;;;39.03;21.90;;;;;;;-1.75;60.17;96412.22;4922410;29;20051;-75
2022/01/13 01:11:29;;;;;;;42.28;21.40;;;;;;;-1.71;59.70;96403.38;4913022;29;20047;-75
2022/01/13 01:13:55;;;;;;;46.30;24.25;;;;;;;-1.73;60.06;96413.72;4922371;29;20892;-75
2022/01/13 01:16:21;;;;;;;47.13;23.73;;;;;;;-1.70;59.80;96412.66;4889504;29;20039;-76
2022/01/13 01:31:36;;;;;;;39.40;22.38;;;;;;;-1.52;58.67;96411.25;4921490;29;20103;-76
2022/01/13 01:36:31;;;;;;;43.47;21.27;;;;;;;-1.46;57.82;96403.13;4921910;29;20055;-76
2022/01/13 01:38:58;;;;;;;43.22;21.48;;;;;;;-1.58;58.50;96404.88;4922016;29;20396;-75
2022/01/13 01:41:23;;;;;;;36.33;20.77;;;;;;;-1.63;58.72;96403.59;4923782;29;20036;-76
2022/01/13 01:43:51;;;;;;;39.13;21.27;;;;;;;-1.59;58.28;96410.09;4925116;29;20032;-76
2022/01/13 01:46:16;;;;;;;30.00;19.85;;;;;;;-1.52;57.79;96417.16;4925042;29;20048;-75
2022/01/13 01:48:41;;;;;;;41.33;20.75;;;;;;;-1.52;58.00;96421.44;4925430;29;20068;-76
2022/01/13 01:51:13;;;;;;;44.38;21.58;;;;;;;-1.51;57.86;96417.97;4923443;29;20044;-76
2022/01/13 01:53:39;;;;;;;42.43;21.87;;;;;;;-1.53;57.68;96412.19;4933987;23;20139;-76
2022/01/13 01:56:04;;;;;;;47.22;22.48;;;;;;;-1.54;58.05;96410.56;4925257;29;20464;-75
2022/01/13 01:58:34;;;;;;;36.75;20.60;;;;;;;-1.54;57.15;96403.72;4933691;29;20044;-76
2022/01/13 02:01:00;;;;;;;42.00;20.63;;;;;;;-1.56;57.61;96409.88;4942480;29;20606;-76
2022/01/13 02:03:26;;;;;;;43.40;22.05;;;;;;;-1.63;57.77;96396.78;4926574;29;20562;-76
2022/01/13 02:05:52;;;;;;;31.20;18.83;;;;;;;-1.67;57.32;96395.38;4926108;29;20039;-75
2022/01/13 02:08:17;;;;;;;35.17;21.02;;;;;;;-1.83;58.28;96398.28;4943696;29;20023;-75
2022/01/13 02:10:44;;;;;;;46.60;23.00;;;;;;;-1.79;57.65;96393.78;4909372;29;20043;-75
2022/01/13 02:13:12;;;;;;;38.78;20.70;;;;;;;-1.75;58.34;96394.34;4943170;29;20047;-76
2022/01/13 02:16:01;;;;;;;40.00;21.92;;;;;;;-1.65;58.00;96400.34;4943349;29;20044;-76
2022/01/13 02:18:34;;;;;;;44.13;20.15;;;;;;;-1.58;57.14;96402.34;4944077;29;20097;-75
2022/01/13 02:21:00;;;;;;;37.35;20.85;;;;;;;-1.65;57.29;96397.81;4943899;29;20055;-76
2022/01/13 02:23:39;;;;;;;38.75;20.95;;;;;;;-1.68;57.84;96406.50;4925508;29;20496;-76
2022/01/13 02:26:06;;;;;;;38.83;21.60;;;;;;;-1.71;57.85;96405.94;4910778;29;20031;-76
2022/01/13 02:28:32;;;;;;;41.42;21.35;;;;;;;-1.65;57.62;96395.25;4926689;29;20039;-76
2022/01/13 02:31:07;;;;;;;36.42;20.15;;;;;;;-1.58;57.00;96402.34;4926520;29;20059;-76
2022/01/13 02:33:35;;;;;;;40.13;20.10;;;;;;;-1.61;57.42;96411.97;4927658;29;20114;-76
2022/01/13 02:36:00;;;;;;;37.20;20.20;;;;;;;-1.56;56.81;96404.75;4944490;29;20552;-75
2022/01/13 02:38:38;;;;;;;37.20;19.65;;;;;;;-1.63;56.77;96394.25;4943394;29;20523;-75
2022/01/13 02:41:07;;;;;;;32.88;17.83;;;;;;;-1.54;55.89;96408.00;4948617;29;20050;-76
2022/01/13 02:43:34;;;;;;;32.47;18.98;;;;;;;-1.66;56.33;96408.94;4943291;29;20032;-75
2022/01/13 02:46:18;;;;;;;33.83;19.70;;;;;;;-1.79;56.76;96408.25;4942334;29;20074;-75
2022/01/13 02:48:46;;;;;;;35.22;20.35;;;;;;;-1.81;57.00;96411.72;4943667;29;20039;-75
2022/01/13 02:51:12;;;;;;;35.55;19.35;;;;;;;-1.81;57.30;96406.63;4926563;29;20115;-75
2022/01/13 02:53:37;;;;;;;36.72;19.50;;;;;;;-1.85;56.67;96405.25;4924996;29;20067;-75
2022/01/13 02:56:06;;;;;;;37.50;20.10;;;;;;;-1.88;56.42;96405.47;4943492;29;20043;-76
2022/01/13 02:58:33;;;;;;;37.47;20.95;;;;;;;-1.89;56.54;96401.31;4926041;29;20053;-76
2022/01/13 03:00:58;;;;;;;31.27;18.33;;;;;;;-2.00;56.43;96391.09;4943334;29;20486;-76
2022/01/13 03:03:24;;;;;;;43.85;21.52;;;;;;;-2.00;56.46;96400.50;4924272;29;20031;-76
2022/01/13 03:05:49;;;;;;;39.92;21.75;;;;;;;-2.00;56.54;96396.19;4944195;29;20566;-77
2022/01/13 03:08:15;;;;;;;37.47;21.55;;;;;;;-2.03;56.92;96401.53;4943238;29;20043;-76
2022/01/13 03:10:40;;;;;;;34.05;19.73;;;;;;;-2.00;56.43;96392.84;4942166;29;20031;-76
2022/01/13 03:13:07;;;;;;;38.80;19.65;;;;;;;-1.98;56.44;96391.78;4941989;29;20047;-76
2022/01/13 03:15:32;;;;;;;37.53;21.45;;;;;;;-1.96;56.41;96397.59;4927726;29;20043;-77
2022/01/13 03:17:58;;;;;;;37.22;21.30;;;;;;;-1.94;56.74;96385.56;4944054;29;20474;-77
2022/01/13 03:20:23;;;;;;;36.53;20.83;;;;;;;-1.89;56.39;96390.31;4927661;29;20051;-76
2022/01/13 03:22:48;;;;;;;40.55;22.50;;;;;;;-1.91;56.41;96394.72;4926137;29;20040;-76
2022/01/13 03:25:16;;;;;;;40.97;22.70;;;;;;;-1.88;56.92;96395.28;4925531;29;20039;-76
2022/01/13 03:27:42;;;;;;;33.90;19.33;;;;;;;-1.89;56.25;96397.94;4924607;29;20053;-76
2022/01/13 03:30:32;;;;;;;33.40;18.88;;;;;;;-1.93;55.97;96407.56;4942929;29;20048;-75
2022/01/13 03:32:59;;;;;;;34.50;18.45;;;;;;;-2.07;56.44;96400.16;4911372;29;20074;-76
2022/01/13 03:35:24;;;;;;;37.65;19.65;;;;;;;-2.09;56.61;96402.00;4942727;29;20043;-75
2022/01/13 03:37:50;;;;;;;36.92;21.67;;;;;;;-2.07;56.50;96412.91;4942832;29;20468;-76
2022/01/13 03:40:17;;;;;;;40.05;20.27;;;;;;;-2.12;56.02;96413.25;4943067;29;20043;-76
2022/01/13 03:42:43;;;;;;;40.88;19.63;;;;;;;-2.22;56.81;96416.59;4941650;29;20035;-76
2022/01/13 03:45:09;;;;;;;30.50;17.85;;;;;;;-2.28;56.36;96417.00;4942716;29;20051;-76
2022/01/13 03:47:40;;;;;;;31.25;17.45;;;;;;;-2.24;56.24;96411.59;4940149;29;20039;-76
2022/01/13 03:50:05;;;;;;;32.40;17.17;;;;;;;-2.29;55.84;96405.19;4894498;29;20523;-76
2022/01/13 03:52:31;;;;;;;28.80;17.85;;;;;;;-2.32;56.76;96410.53;4908949;29;20070;-76
2022/01/13 03:55:15;;;;;;;38.22;17.95;;;;;;;-2.29;56.20;96405.19;4941530;29;20071;-76
2022/01/13 03:57:59;;;;;;;30.85;16.90;;;;;;;-2.34;55.78;96412.38;4941751;29;20042;-76
2022/01/13 04:00:54;;;;;;;35.78;18.27;;;;;;;-2.44;55.95;96413.06;4940710;29;20035;-76
2022/01/13 04:03:22;;;;;;;41.65;18.73;;;;;;;-2.40;55.84;96407.75;4923008;29;20046;-76
2022/01/13 04:06:04;;;;;;;36.35;19.20;;;;;;;-2.49;56.35;96416.88;4942627;29;20411;-76
2022/01/13 04:08:30;;;;;;;35.05;18.77;;;;;;;-2.50;56.23;96418.59;4943333;29;20055;-76
2022/01/13 04:11:06;;;;;;;38.47;18.55;;;;;;;-2.53;56.46;96431.56;4909829;29;20122;-76
2022/01/13 04:13:56;;;;;;;41.05;19.02;;;;;;;-2.55;56.36;96423.22;4947417;29;20028;-76
2022/01/13 04:16:36;;;;;;;29.88;16.92;;;;;;;-2.67;56.84;96436.84;4916917;29;20141;-76
2022/01/13 04:19:05;;;;;;;25.98;15.23;;;;;;;-2.76;56.79;96437.50;4942148;29;20135;-75
2022/01/13 04:21:34;;;;;;;31.75;19.27;;;;;;;-2.76;56.74;96440.06;4925183;29;20048;-76
2022/01/13 04:24:05;;;;;;;25.48;17.00;;;;;;;-2.70;56.96;96444.69;4908182;29;20457;-76
2022/01/13 04:26:33;;;;;;;31.60;17.45;;;;;;;-2.79;57.02;96443.63;4942414;29;20043;-76
2022/01/13 04:29:17;;;;;;;25.30;14.77;;;;;;;-2.73;56.32;96452.56;4942180;29;20522;-76
2022/01/13 04:31:49;;;;;;;29.02;16.10;;;;;;;-2.80;56.10;96457.25;4942435;29;20115;-76
2022/01/13 04:34:14;;;;;;;26.70;15.37;;;;;;;-2.83;56.15;96465.13;4939184;29;20555;-76
2022/01/13 04:36:56;;;;;;;29.58;16.17;;;;;;;-2.87;56.73;96466.28;4942163;29;20043;-76
2022/01/13 04:39:22;;;;;;;25.73;16.77;;;;;;;-2.94;57.63;96454.88;4893865;29;20479;-76
2022/01/13 04:41:48;;;;;;;27.48;15.73;;;;;;;-2.97;57.20;96459.38;4941884;29;20050;-77
2022/01/13 04:44:20;;;;;;;24.88;15.05;;;;;;;-3.00;56.66;96451.97;4940295;29;20039;-76
2022/01/13 04:46:46;;;;;;;26.15;15.98;;;;;;;-3.01;57.00;96435.88;4942936;29;20043;-77
2022/01/13 04:49:12;;;;;;;30.42;17.13;;;;;;;-3.11;56.75;96442.53;4940800;29;20045;-77
2022/01/13 04:51:39;;;;;;;32.58;16.80;;;;;;;-3.07;56.86;96444.78;4908980;29;20050;-76
2022/01/13 04:54:05;;;;;;;26.45;15.75;;;;;;;-3.14;56.45;96448.66;4908870;29;20032;-77
2022/01/13 04:56:39;;;;;;;29.77;17.35;;;;;;;-3.12;56.75;96451.91;4908964;29;20038;-76
2022/01/13 04:59:04;;;;;;;34.47;16.98;;;;;;;-3.05;56.16;96448.03;4925114;29;20032;-76
2022/01/13 05:01:30;;;;;;;27.77;14.50;;;;;;;-3.14;56.31;96448.66;4925189;29;20451;-76
2022/01/13 05:03:56;;;;;;;23.05;14.35;;;;;;;-3.06;56.42;96440.50;4941139;29;20067;-76
2022/01/13 05:06:21;;;;;;;22.02;12.73;;;;;;;-3.02;55.76;96440.16;4892298;29;20611;-76
2022/01/13 05:08:47;;;;;;;25.95;15.43;;;;;;;-3.10;55.86;96449.25;4942045;29;20058;-75
2022/01/13 05:11:13;;;;;;;23.73;13.75;;;;;;;-3.18;56.13;96456.63;4902600;29;20087;-78
2022/01/13 05:13:40;;;;;;;23.58;13.45;;;;;;;-3.24;56.37;96455.31;4918934;29;20083;-77
2022/01/13 05:16:08;;;;;;;31.27;14.98;;;;;;;-3.23;56.01;96468.84;4920182;29;20058;-77
2022/01/13 05:21:05;;;;;;;25.00;14.98;;;;;;;-3.17;56.15;96469.22;4908556;29;20067;-78
2022/01/13 05:23:31;;;;;;;27.58;15.65;;;;;;;-3.09;55.49;96472.06;4922595;29;20060;-77
2022/01/13 05:25:56;;;;;;;24.42;13.98;;;;;;;-2.99;55.48;96469.66;4908842;29;20095;-77
2022/01/13 05:28:22;;;;;;;25.05;13.27;;;;;;;-2.90;54.53;96465.69;4922869;29;20044;-78
2022/01/13 05:30:47;;;;;;;30.00;14.40;;;;;;;-2.99;54.74;96479.03;4922676;29;20036;-77
2022/01/13 05:33:15;;;;;;;23.30;13.40;;;;;;;-2.99;54.81;96476.50;4922369;29;20052;-76
2022/01/13 05:35:41;;;;;;;28.17;15.15;;;;;;;-3.04;55.11;96475.09;4920346;29;20121;-77
2022/01/13 05:38:07;;;;;;;28.02;14.10;;;;;;;-3.08;55.38;96483.06;4920774;29;20103;-76
2022/01/13 05:40:36;;;;;;;30.80;13.85;;;;;;;-3.16;55.50;96488.66;4914408;29;20122;-77
2022/01/13 05:43:01;;;;;;;34.08;14.23;;;;;;;-3.28;54.98;96481.88;4902824;29;20113;-77
2022/01/13 05:45:32;;;;;;;37.03;14.10;;;;;;;-3.35;55.85;96495.94;4905590;29;20100;-77
2022/01/13 05:47:58;;;;;;;24.88;13.98;;;;;;;-3.37;55.41;96502.88;4908891;29;20439;-77
2022/01/13 05:50:24;;;;;;;25.65;15.38;;;;;;;-3.36;55.98;96504.50;4924661;29;20583;-77
2022/01/13 05:52:49;;;;;;;26.92;15.48;;;;;;;-3.28;56.04;96497.13;4926093;29;20475;-77
2022/01/13 05:55:15;;;;;;;35.78;14.57;;;;;;;-3.22;55.67;96486.56;4922869;23;20072;-77
2022/01/13 05:57:41;;;;;;;24.13;13.65;;;;;;;-3.18;55.71;96498.13;4923316;29;20109;-77
2022/01/13 06:00:09;;;;;;;26.63;14.20;;;;;;;-3.14;55.50;96501.28;4906674;29;20499;-76
2022/01/13 06:02:34;;;;;;;32.10;17.05;;;;;;;-3.19;56.55;96500.78;4924760;29;20059;-76
2022/01/13 06:04:59;;;;;;;28.17;15.40;;;;;;;-3.19;56.80;96504.16;4922301;29;20036;-76
2022/01/13 06:07:25;;;;;;;29.23;16.38;;;;;;;-3.20;56.50;96499.16;4924148;29;20144;-76
2022/01/13 06:09:50;;;;;;;30.98;16.15;;;;;;;-3.16;56.38;96506.47;4891595;29;20040;-76
2022/01/13 06:12:17;;;;;;;32.17;17.08;;;;;;;-3.23;55.79;96510.38;4906874;29;20035;-76
2022/01/13 06:14:43;;;;;;;27.90;15.55;;;;;;;-3.24;56.34;96513.84;4906023;29;20040;-77
2022/01/13 06:17:08;;;;;;;32.60;15.00;;;;;;;-3.26;56.42;96505.47;4891704;29;20040;-77
2022/01/13 06:19:34;;;;;;;24.98;14.48;;;;;;;-3.22;56.61;96514.53;4891246;29;20035;-77
2022/01/13 06:21:59;;;;;;;31.45;16.30;;;;;;;-3.13;55.91;96526.59;4907043;29;20064;-77
2022/01/13 06:24:25;;;;;;;28.27;15.40;;;;;;;-3.10;55.93;96525.56;4907744;29;20468;-75
2022/01/13 06:26:50;;;;;;;33.30;16.52;;;;;;;-3.00;55.49;96530.84;4923543;29;20043;-77
2022/01/13 06:29:16;;;;;;;22.75;13.93;;;;;;;-3.03;54.70;96532.69;4892886;29;20027;-76
2022/01/13 06:34:10;;;;;;;21.15;13.07;;;;;;;-3.04;54.96;96540.44;4945027;23;20083;-76
2022/01/13 06:36:36;;;;;;;20.23;13.15;;;;;;;-3.11;53.96;96542.56;4944448;29;20040;-76
2022/01/13 06:39:01;;;;;;;24.25;12.60;;;;;;;-3.26;54.63;96543.63;4941959;29;20039;-75
2022/01/13 06:41:27;;;;;;;38.42;16.33;;;;;;;-3.33;55.13;96545.78;4942999;29;20698;-74
2022/01/13 06:43:52;;;;;;;26.25;15.20;;;;;;;-3.36;54.71;96550.28;4908501;29;20031;-76
2022/01/13 06:46:17;;;;;;;28.02;15.35;;;;;;;-3.38;55.05;96549.56;4910555;29;20047;-76
2022/01/13 06:48:45;;;;;;;46.08;20.05;;;;;;;-3.49;54.68;96554.53;4943748;29;20078;-76
2022/01/13 06:51:11;;;;;;;26.85;16.73;;;;;;;-3.60;54.66;96551.91;4909969;29;20039;-75
2022/01/13 06:53:38;;;;;;;28.65;16.75;;;;;;;-3.63;54.60;96558.81;4894580;29;20045;-76
2022/01/13 06:56:04;;;;;;;38.28;20.67;;;;;;;-3.71;54.41;96557.72;4925798;29;20031;-76
2022/01/13 06:58:30;;;;;;;26.48;14.77;;;;;;;-3.71;54.63;96558.53;4910813;29;20435;-76
2022/01/13 07:00:55;;;;;;;26.25;13.50;;;;;;;-3.72;54.29;96564.53;4942558;29;20069;-75
2022/01/13 07:03:22;;;;;;;30.02;15.65;;;;;;;-3.80;54.81;96574.38;4909989;29;20039;-76
2022/01/13 07:05:47;;;;;;;30.95;17.45;;;;;;;-3.76;54.78;96573.25;4910223;29;20039;-75
2022/01/13 07:08:13;;;;;;;25.13;14.18;;;;;;;-3.69;54.15;96564.31;4925699;29;20492;-75
2022/01/13 07:10:38;;;;;;;34.83;19.23;;;;;;;-3.73;54.54;96585.78;4910125;29;20090;-76
2022/01/13 07:13:03;;;;;;;23.88;12.60;;;;;;;-3.79;54.40;96582.81;4933149;29;20040;-75
2022/01/13 07:15:31;;;;;;;20.85;12.60;;;;;;;-3.82;54.97;96594.00;4909737;29;20608;-75
2022/01/13 07:17:56;;;;;;;27.58;14.32;;;;;;;-3.90;54.55;96588.59;4925627;29;20063;-75
2022/01/13 07:20:22;;;;;;;25.50;14.05;;;;;;;-3.83;54.94;96587.28;4926955;29;20050;-76
2022/01/13 07:22:47;;;;;;;24.52;14.35;;;;;;;-3.78;54.33;96580.16;4946109;29;20043;-76
2022/01/13 07:25:19;;;;;;;27.35;13.00;;;;;;;-3.70;54.38;96585.56;4928656;29;20468;-75
2022/01/13 07:27:44;;;;;;;26.83;13.32;;;;;;;-3.69;54.48;96597.38;4892010;29;20040;-75
2022/01/13 07:30:10;;;;;;;25.35;12.52;;;;;;;-3.72;55.09;96587.41;4942219;29;20044;-75
2022/01/13 07:32:39;;;;;;;30.02;15.55;;;;;;;-3.68;55.23;96593.91;4941276;29;20110;-75
2022/01/13 07:35:09;;;;;;;27.17;13.93;;;;;;;-3.62;53.68;96588.41;4942060;29;20130;-75
2022/01/13 07:37:34;;;;;;;21.58;12.05;;;;;;;-3.59;53.57;96594.19;4942496;29;20106;-77
2022/01/13 07:39:59;;;;;;;22.88;12.10;;;;;;;-3.68;53.64;96598.19;4923287;29;20039;-77
2022/01/13 07:42:26;;;;;;;26.58;14.88;;;;;;;-3.74;53.39;96589.22;4909209;29;20035;-77
2022/01/13 07:44:52;;;;;;;47.85;15.38;;;;;;;-3.72;53.11;96607.75;4924780;29;20054;-78
2022/01/13 07:47:18;;;;;;;20.70;13.20;;;;;;;-3.70;53.93;96617.81;4891775;29;20169;-77
2022/01/13 07:49:43;;;;;;;27.02;15.65;;;;;;;-3.63;53.77;96609.66;4941675;23;20055;-81
2022/01/13 07:52:09;;;;;;;24.90;14.30;;;;;;;-3.52;52.50;96628.50;4920361;23;20584;-77
2022/01/13 07:54:34;;;;;;;24.45;14.38;;;;;;;-3.47;53.03;96629.81;4932067;29;20111;-75
2022/01/13 07:57:00;;;;;;;26.42;14.40;;;;;;;-3.45;53.55;96632.25;4931595;29;20086;-75
2022/01/13 07:59:28;;;;;;;25.58;14.93;;;;;;;-3.38;52.50;96625.88;4932599;29;20400;-75
2022/01/13 08:01:56;;;;;;;20.15;12.00;;;;;;;-3.28;52.61;96629.41;4932806;29;20028;-75
2022/01/13 08:04:21;;;;;;;24.75;11.93;;;;;;;-3.16;51.32;96638.78;4931917;29;20052;-75
2022/01/13 08:06:47;;;;;;;25.63;12.82;;;;;;;-3.24;51.75;96655.47;4932277;29;20507;-75
2022/01/13 08:09:13;;;;;;;22.67;12.77;;;;;;;-3.30;51.28;96658.41;4915004;29;20086;-75
2022/01/13 08:11:39;;;;;;;30.15;12.32;;;;;;;-3.27;51.62;96651.38;4899545;29;20031;-76
2022/01/13 08:14:04;;;;;;;23.70;10.75;;;;;;;-3.17;50.93;96656.69;4912799;29;20043;-75
2022/01/13 08:16:34;;;;;;;25.33;14.40;;;;;;;-3.21;50.67;96660.34;4914911;29;20098;-75
2022/01/13 08:21:43;;;;;;;29.88;12.10;;;;;;;-3.34;50.60;96662.88;4918343;29;20609;-76
2022/01/13 08:24:08;;;;;;;35.53;17.13;;;;;;;-3.36;50.60;96672.34;4898846;29;20044;-75
2022/01/13 08:26:34;;;;;;;24.08;12.63;;;;;;;-3.35;50.35;96676.53;4915081;29;20545;-75
2022/01/13 08:28:59;;;;;;;19.02;10.73;;;;;;;-3.37;50.18;96686.00;4914944;29;20365;-75
2022/01/13 08:31:25;;;;;;;16.60;10.43;;;;;;;-3.42;50.22;96678.66;4912801;29;20036;-75
2022/01/13 08:33:52;;;;;;;21.48;11.98;;;;;;;-3.50;50.49;96680.88;4914044;29;20028;-75
2022/01/13 08:36:18;;;;;;;33.33;13.32;;;;;;;-3.37;51.11;96676.63;4914904;29;20032;-75
2022/01/13 08:38:43;;;;;;;37.13;18.75;;;;;;;-3.10;50.73;96680.78;4931207;29;20030;-75
2022/01/13 08:41:09;;;;;;;43.47;18.45;;;;;;;-2.85;49.24;96674.88;4930593;29;20099;-75
2022/01/13 08:43:36;;;;;;;39.90;20.50;;;;;;;-2.73;48.43;96666.44;4903967;29;20039;-75
2022/01/13 08:46:03;;;;;;;46.20;19.15;;;;;;;-2.65;48.47;96689.63;4912695;29;20036;-75
2022/01/13 08:48:29;;;;;;;32.88;15.30;;;;;;;-2.55;48.39;96689.81;4899213;29;20066;-75
2022/01/13 08:50:55;;;;;;;27.85;13.20;;;;;;;-2.49;48.13;96685.09;4913886;29;20048;-75
2022/01/13 08:53:20;;;;;;;39.85;20.33;;;;;;;-2.35;48.01;96685.91;4913417;29;20035;-75
2022/01/13 08:55:46;;;;;;;30.85;17.35;;;;;;;-2.26;47.24;96691.19;4930038;29;20071;-75
2022/01/13 08:58:11;;;;;;;17.73;10.82;;;;;;;-2.35;46.76;96691.81;4931747;29;20027;-75
2022/01/13 09:00:37;;;;;;;14.43;10.70;;;;;;;-2.46;47.16;96679.78;4898000;29;20396;-75
2022/01/13 09:03:07;;;;;;;16.27;10.20;;;;;;;-2.51;47.10;96668.31;4913764;29;20050;-76
2022/01/13 09:05:32;;;;;;;23.88;10.75;;;;;;;-2.57;48.23;96678.94;4899620;29;20087;-76
2022/01/13 09:08:01;;;;;;;23.98;14.82;;;;;;;-2.66;48.65;96677.81;4929037;29;20031;-75
2022/01/13 09:10:27;;;;;;;23.33;12.88;;;;;;;-2.53;47.60;96688.78;4898427;29;20063;-75
2022/01/13 09:12:53;;;;;;;25.02;13.75;;;;;;;-2.52;48.36;96684.50;4931734;29;20123;-75
2022/01/13 09:18:06;;;;;;;39.17;16.98;;;;;;;-2.25;47.67;96676.72;4915902;29;20099;-79
2022/01/13 09:20:32;;;;;;;48.47;21.63;;;;;;;-2.10;47.50;96672.28;4936007;29;20040;-78
2022/01/13 09:22:57;;;;;;;41.08;18.20;;;;;;;-1.96;47.31;96654.25;4899294;29;20114;-75
2022/01/13 09:25:23;;;;;;;44.13;23.45;;;;;;;-1.82;46.08;96654.88;4916386;29;20032;-78
2022/01/13 09:27:49;;;;;;;30.58;16.52;;;;;;;-1.74;45.48;96651.78;4918497;29;20035;-80
2022/01/13 09:30:14;;;;;;;37.15;19.98;;;;;;;-1.75;45.81;96645.06;4917994;29;20038;-80
2022/01/13 09:32:40;;;;;;;32.35;17.42;;;;;;;-1.62;45.51;96642.44;4918163;29;20040;-80
2022/01/13 09:35:06;;;;;;;34.03;16.13;;;;;;;-1.65;45.21;96635.81;4901910;29;20051;-80
2022/01/13 09:37:34;;;;;;;39.92;20.55;;;;;;;-1.70;46.20;96627.69;4918052;29;20046;-79
2022/01/13 09:40:00;;;;;;;46.53;22.70;;;;;;;-1.49;45.70;96620.19;4918435;29;20035;-79
2022/01/13 09:42:26;;;;;;;38.13;17.58;;;;;;;-1.30;46.24;96620.47;4917504;29;20036;-88
2022/01/13 09:44:57;;;;;;;36.80;18.95;;;;;;;-1.17;45.88;96625.47;4885317;29;20135;-78
2022/01/13 09:47:23;;;;;;;23.77;13.23;;;;;;;-1.39;52.21;96616.06;4905528;29;20086;-79
2022/01/13 09:49:49;;;;;;;23.02;12.70;;;;;;;-1.49;51.60;96619.38;4938281;29;20043;-79
2022/01/13 09:52:14;;;;;;;27.55;14.13;;;;;;;-1.51;48.64;96622.06;4904822;29;20107;-79
2022/01/13 09:54:40;;;;;;;34.70;19.90;;;;;;;-1.44;48.18;96618.13;4939529;29;20519;-78
2022/01/13 09:57:05;;;;;;;36.42;22.30;;;;;;;-1.24;49.97;96596.22;4922761;29;20476;-79
2022/01/13 09:59:33;;;;;;;40.85;22.02;;;;;;;-1.05;47.41;96585.44;4920026;29;20031;-79
2022/01/13 10:01:59;;;;;;;34.78;19.33;;;;;;;-0.92;47.26;96579.28;4921652;29;20035;-79
2022/01/13 10:04:30;;;;;;;38.30;20.13;;;;;;;-0.86;49.15;96572.88;4909057;29;20044;-79
2022/01/13 10:06:55;;;;;;;29.90;15.48;;;;;;;-0.84;48.12;96565.91;4909302;29;20043;-79
2022/01/13 10:09:21;;;;;;;26.40;13.73;;;;;;;-0.93;47.27;96566.63;4908550;29;20042;-79
2022/01/13 10:11:57;;;;;;;34.95;18.20;;;;;;;-0.84;47.42;96563.38;4923483;29;20102;-79
2022/01/13 10:17:19;;;;;;;24.20;13.80;;;;;;;-0.83;46.94;96561.63;4939923;29;20035;-79
2022/01/13 10:19:46;;;;;;;32.75;18.58;;;;;;;-0.62;45.99;96560.78;4936098;29;20063;-78
2022/01/13 10:22:27;;;;;;;28.35;17.13;;;;;;;-0.50;46.89;96545.41;4907959;29;20024;-78
2022/01/13 10:24:54;;;;;;;27.70;15.55;;;;;;;-0.50;45.77;96541.09;4909629;29;20043;-78
2022/01/13 10:27:27;;;;;;;31.60;18.05;;;;;;;-0.63;45.48;96525.94;4924565;29;20039;-79
2022/01/13 10:29:55;;;;;;;40.13;20.85;;;;;;;-0.68;46.99;96532.34;4922920;29;20039;-78
2022/01/13 10:32:21;;;;;;;73.45;30.23;;;;;;;-0.72;48.25;96524.09;4906470;29;20570;-78
2022/01/13 10:34:49;;;;;;;43.47;22.08;;;;;;;-0.83;47.87;96526.69;4920966;29;20110;-78
2022/01/13 10:37:18;;;;;;;58.83;27.83;;;;;;;-0.89;47.02;96532.28;4923264;29;20036;-78
2022/01/13 10:39:51;;;;;;;45.47;23.60;;;;;;;-0.86;47.97;96532.03;4907497;29;20124;-78
2022/01/13 10:45:19;;;;;;;45.45;22.33;;;;;;;-1.05;46.40;96511.41;4938865;29;20034;-79
2022/01/13 10:47:55;;;;;;;42.60;21.77;;;;;;;-1.24;48.72;96507.72;4916599;29;20058;-80
2022/01/13 10:50:21;;;;;;;46.03;24.75;;;;;;;-1.27;47.13;96512.25;4923756;29;20047;-81
2022/01/13 10:52:49;;;;;;;53.63;29.95;;;;;;;-1.33;47.48;96507.59;4921862;29;20040;-79
2022/01/13 10:55:22;;;;;;;59.67;31.05;;;;;;;-1.42;48.30;96487.91;4903975;29;20883;-79
2022/01/13 10:57:48;;;;;;;43.58;22.77;;;;;;;-1.59;46.80;96491.72;4917012;29;20043;-75
2022/01/13 11:00:17;;;;;;;59.65;31.23;;;;;;;-1.66;47.10;96495.66;4933884;29;20396;-78
2022/01/13 11:03:04;;;;;;;97.47;38.40;;;;;;;-1.58;46.98;96509.47;4932201;29;20040;-75
2022/01/13 11:05:31;;;;;;;56.35;28.65;;;;;;;-1.56;46.81;96522.09;4915667;29;20118;-75
2022/01/13 11:08:01;;;;;;;63.03;29.88;;;;;;;-1.66;46.79;96516.06;4900623;29;20119;-75
2022/01/13 11:10:27;;;;;;;43.38;21.10;;;;;;;-1.65;46.93;96503.19;4916608;29;20043;-75
2022/01/13 11:12:57;;;;;;;35.95;18.25;;;;;;;-1.75;46.75;96511.66;4931313;29;20448;-76
2022/01/13 11:15:24;;;;;;;33.50;18.00;;;;;;;-1.77;46.99;96508.41;4915816;29;20039;-76
2022/01/13 11:17:51;;;;;;;35.75;18.15;;;;;;;-1.78;47.81;96506.78;4917049;29;20071;-75
2022/01/13 11:20:17;;;;;;;37.08;18.58;;;;;;;-1.81;48.16;96512.91;4915779;29;20123;-75
2022/01/13 11:22:47;;;;;;;48.08;23.08;;;;;;;-1.86;48.49;96489.50;4932446;29;20047;-76
2022/01/13 11:25:14;;;;;;;35.85;19.55;;;;;;;-1.89;48.74;96500.75;4933611;29;20037;-77
2022/01/13 11:27:40;;;;;;;29.63;15.27;;;;;;;-1.82;47.63;96494.25;4933168;29;20093;-75
2022/01/13 11:30:08;;;;;;;38.83;21.58;;;;;;;-1.86;47.64;96490.31;4900174;29;20035;-76
2022/01/13 11:32:33;;;;;;;33.60;17.00;;;;;;;-2.02;47.97;96474.53;4915581;29;20110;-75
2022/01/13 11:34:59;;;;;;;20.65;13.80;;;;;;;-2.06;48.44;96485.88;4915785;29;20492;-75
2022/01/13 11:37:26;;;;;;;35.58;17.23;;;;;;;-2.07;49.13;96488.53;4915679;29;20074;-75
2022/01/13 11:39:51;;;;;;;38.55;18.63;;;;;;;-2.08;48.71;96480.09;4915455;29;20416;-75
2022/01/13 11:42:18;;;;;;;36.88;17.38;;;;;;;-2.18;49.08;96479.13;4932631;29;20031;-75
2022/01/13 11:44:44;;;;;;;44.25;19.48;;;;;;;-2.17;48.82;96478.19;4932683;29;20555;-75
2022/01/13 11:47:24;;;;;;;37.15;20.50;;;;;;;-2.07;49.14;96491.91;4932912;29;20023;-75
2022/01/13 11:52:52;;;;;;;29.80;15.10;;;;;;;-1.79;49.01;96469.44;4915319;29;20036;-74
2022/01/13 11:55:27;;;;;;;28.00;14.73;;;;;;;-1.97;49.31;96490.28;4912353;29;20044;-76
2022/01/13 11:58:32;;;;;;;31.45;16.40;;;;;;;-1.93;49.88;96501.91;4932696;29;20032;-76